Mare I — 3FIH6 — position and weather

sailwx.info

Track history (hours):
 
Tides and Currents Weather Stations Pressure Air Temp Water Temp Dewpoint Dewpoint Depression Visibility Wind Speed Wind Dir Waves Ship Positions

Mare I

Last reported at 2017-Oct-27 04:48 UTC. Time now 2017-Nov-18 04:49 UTC.
Position N 36°51' E 013°55'.
Warning: this ship's position is 22 days out of date.

Length 111 m; draft 7 m.

Type: Cargo ship. MMSI: 357387000.

Date/timePositionNaut miles runAvg speedWind from/ knotsBaromVisibWave heightAir tempDewpointWater temp
2017-Oct-27 04:48N 36°51' E 013°55'3 8.5
2017-Oct-27 04:29N 36°50' E 013°58'4 8.7
2017-Oct-27 04:00N 36°48' E 014°03'4 8.6
2017-Oct-27 03:30N 36°47' E 014°08'4 8.5
2017-Oct-27 03:00N 36°46' E 014°14'5 9.2
2017-Oct-27 02:30N 36°45' E 014°19'5 9.8
2017-Oct-27 02:00N 36°43' E 014°25'5 9.8
2017-Oct-27 01:30N 36°42' E 014°31'  
2017-Oct-23 22:33N 40°24' E 024°31'1 9.3
2017-Oct-23 22:29N 40°24' E 024°31'5 9.2
2017-Oct-23 22:00N 40°29' E 024°30'5 9.2
2017-Oct-23 21:30N 40°33' E 024°30'5 9.2
2017-Oct-23 21:00N 40°38' E 024°29'5 9.7
2017-Oct-23 20:30N 40°43' E 024°29'5 9.7
2017-Oct-23 20:00N 40°48' E 024°28'5 9.6
2017-Oct-23 19:30N 40°52' E 024°29'3 5.2
2017-Oct-23 18:58N 40°55' E 024°29'0 0.1
2017-Oct-23 18:28N 40°55' E 024°29'0 0.0
2017-Oct-23 17:58N 40°55' E 024°29'0 0.0
2017-Oct-23 17:28N 40°55' E 024°29'0 0.0
2017-Oct-23 16:58N 40°55' E 024°29'0 0.0
2017-Oct-23 16:28N 40°55' E 024°29'0 0.0
2017-Oct-23 15:58N 40°55' E 024°29'0 0.0
2017-Oct-23 15:28N 40°55' E 024°29'0 0.0
2017-Oct-23 14:58N 40°55' E 024°29'0 0.5
2017-Oct-23 14:30N 40°55' E 024°30'0 0.7
2017-Oct-23 13:58N 40°55' E 024°29'0 0.0
2017-Oct-23 13:28N 40°55' E 024°29'0 0.0
2017-Oct-23 12:58N 40°55' E 024°29'0 0.0
2017-Oct-23 12:28N 40°55' E 024°29'0 0.0
2017-Oct-23 11:58N 40°55' E 024°29'0 0.0
2017-Oct-23 11:28N 40°55' E 024°29'0 0.0
2017-Oct-23 10:58N 40°55' E 024°29'0 0.0
2017-Oct-23 10:28N 40°55' E 024°29'0 0.0
2017-Oct-23 09:58N 40°55' E 024°29'0 0.0
2017-Oct-23 09:28N 40°55' E 024°29'0 0.0
2017-Oct-23 08:58N 40°55' E 024°29'0 0.0
2017-Oct-23 08:28N 40°55' E 024°29'0 0.0
2017-Oct-23 07:58N 40°55' E 024°29'0 0.0
2017-Oct-23 07:28N 40°55' E 024°29'0 0.3
2017-Oct-23 07:00N 40°55' E 024°29'2 2.6
2017-Oct-23 06:25N 40°57' E 024°29'0 0.0
2017-Oct-23 05:58N 40°57' E 024°29'0 0.0
2017-Oct-23 05:28N 40°57' E 024°29'0 0.0
2017-Oct-23 04:58N 40°57' E 024°29'0 0.0
2017-Oct-23 04:28N 40°57' E 024°29'0 0.0
2017-Oct-23 03:58N 40°57' E 024°29'0 0.0
2017-Oct-23 03:28N 40°57' E 024°29'0 0.0
2017-Oct-23 02:58N 40°57' E 024°29'0 0.0
2017-Oct-23 02:28N 40°57' E 024°29'0 0.0
2017-Oct-23 01:58N 40°57' E 024°29'0 0.0
2017-Oct-23 01:28N 40°57' E 024°29'0 0.0
2017-Oct-23 00:58N 40°57' E 024°29'0 0.0
2017-Oct-23 00:25N 40°57' E 024°29'0 0.0
2017-Oct-22 23:58N 40°57' E 024°29'0 0.0
2017-Oct-22 23:28N 40°57' E 024°29'0 0.0
2017-Oct-22 22:55N 40°57' E 024°29'0 0.0
2017-Oct-22 22:28N 40°57' E 024°29'0 0.0
2017-Oct-22 21:58N 40°57' E 024°29'0 0.0
2017-Oct-22 21:28N 40°57' E 024°29'0 0.0
2017-Oct-22 20:58N 40°57' E 024°29'0 0.0
2017-Oct-22 20:28N 40°57' E 024°29'0 0.0
2017-Oct-22 19:58N 40°57' E 024°29'0 0.0
2017-Oct-22 19:28N 40°57' E 024°29'0 0.0
2017-Oct-22 18:58N 40°57' E 024°29'0 0.0
2017-Oct-22 18:28N 40°57' E 024°29'0 0.0
2017-Oct-22 17:58N 40°57' E 024°29'0 0.0
2017-Oct-22 17:28N 40°57' E 024°29'0 0.0
2017-Oct-22 16:55N 40°57' E 024°29'0 0.0
2017-Oct-22 16:28N 40°57' E 024°29'0 0.0
2017-Oct-22 15:58N 40°57' E 024°29'0 0.0
2017-Oct-22 15:28N 40°57' E 024°29'0 0.0
2017-Oct-22 14:58N 40°57' E 024°29'0 0.0
2017-Oct-22 14:28N 40°57' E 024°29'0 0.0
2017-Oct-22 13:58N 40°57' E 024°29'0 0.0
2017-Oct-22 13:28N 40°57' E 024°29'0 0.0
2017-Oct-22 12:58N 40°57' E 024°29'0 0.0
2017-Oct-22 12:28N 40°57' E 024°29'0 0.0
2017-Oct-22 11:58N 40°57' E 024°29'0 0.0
2017-Oct-22 11:28N 40°57' E 024°29'0 0.0
2017-Oct-22 10:58N 40°57' E 024°29'0 0.0
2017-Oct-22 10:28N 40°57' E 024°29'0 0.0
2017-Oct-22 09:58N 40°57' E 024°29'0 0.0
2017-Oct-22 09:28N 40°57' E 024°29'0 0.0
2017-Oct-22 08:58N 40°57' E 024°29'0 0.0
2017-Oct-22 08:28N 40°57' E 024°29'0 0.0
2017-Oct-22 07:52N 40°57' E 024°29'0 0.0
2017-Oct-22 07:28N 40°57' E 024°29'0 0.0
2017-Oct-22 06:58N 40°57' E 024°29'0 0.0
2017-Oct-22 06:28N 40°57' E 024°29'0 0.0
2017-Oct-22 05:58N 40°57' E 024°29'0 0.0
2017-Oct-22 05:28N 40°57' E 024°29'0 0.0
2017-Oct-22 04:58N 40°57' E 024°29'0 0.0
2017-Oct-22 04:28N 40°57' E 024°29'0 0.0
2017-Oct-22 03:58N 40°57' E 024°29'0 0.0
2017-Oct-22 03:28N 40°57' E 024°29'0 0.0
2017-Oct-22 02:58N 40°57' E 024°29'0 0.0
2017-Oct-22 02:28N 40°57' E 024°29'0 0.0
2017-Oct-22 01:58N 40°57' E 024°29'0 0.0
2017-Oct-22 01:28N 40°57' E 024°29'0 0.0
2017-Oct-22 00:58N 40°57' E 024°29'0 0.0
2017-Oct-22 00:28N 40°57' E 024°29'0 0.0
2017-Oct-21 23:55N 40°57' E 024°29'0 0.0
2017-Oct-21 23:28N 40°57' E 024°29'0 0.0
2017-Oct-21 22:58N 40°57' E 024°29'0 0.0
2017-Oct-21 22:28N 40°57' E 024°29'0 0.0
2017-Oct-21 21:58N 40°57' E 024°29'0 0.0
2017-Oct-21 21:28N 40°57' E 024°29'0 0.0
2017-Oct-21 20:58N 40°57' E 024°29'0 0.0
2017-Oct-21 20:22N 40°57' E 024°29'0 0.0
2017-Oct-21 19:58N 40°57' E 024°29'0 0.0
2017-Oct-21 19:28N 40°57' E 024°29'0 0.0
2017-Oct-21 18:58N 40°57' E 024°29'0 0.0
2017-Oct-21 18:28N 40°57' E 024°29'0 0.0
2017-Oct-21 17:58N 40°57' E 024°29'0 0.0
2017-Oct-21 17:28N 40°57' E 024°29'0 0.0
2017-Oct-21 16:55N 40°57' E 024°29'0 0.0
2017-Oct-21 16:28N 40°57' E 024°29'0 0.0
2017-Oct-21 15:58N 40°57' E 024°29'0 0.0
2017-Oct-21 15:28N 40°57' E 024°29'0 0.0
2017-Oct-21 14:58N 40°57' E 024°29'0 0.0
2017-Oct-21 14:28N 40°57' E 024°29'0 0.0
2017-Oct-21 13:28N 40°57' E 024°29'0 0.0
2017-Oct-21 12:58N 40°57' E 024°29'0 0.0
2017-Oct-21 12:28N 40°57' E 024°29'0 0.0
2017-Oct-21 11:58N 40°57' E 024°29'0 0.0
2017-Oct-21 11:28N 40°57' E 024°29'0 0.0
2017-Oct-21 10:58N 40°57' E 024°29'0 0.0
2017-Oct-21 10:28N 40°57' E 024°29'0 0.0
2017-Oct-21 09:58N 40°57' E 024°29'0 0.0
2017-Oct-21 09:28N 40°57' E 024°29'0 0.0
2017-Oct-21 08:58N 40°57' E 024°29'0 0.0
2017-Oct-21 08:28N 40°57' E 024°29'0 0.0
2017-Oct-21 07:58N 40°57' E 024°29'0 0.0
2017-Oct-21 07:28N 40°57' E 024°29'0 0.0
2017-Oct-21 06:58N 40°57' E 024°29'0 0.0
2017-Oct-21 06:28N 40°57' E 024°29'0 0.0
2017-Oct-21 05:58N 40°57' E 024°29'0 0.0
2017-Oct-21 05:28N 40°57' E 024°29'0 0.0
2017-Oct-21 04:58N 40°57' E 024°29'0 0.0
2017-Oct-21 04:28N 40°57' E 024°29'0 0.0
2017-Oct-21 03:58N 40°57' E 024°29'0 0.0
2017-Oct-21 03:28N 40°57' E 024°29'0 0.0
2017-Oct-21 02:58N 40°57' E 024°29'0 0.0
2017-Oct-21 02:28N 40°57' E 024°29'0 0.0
2017-Oct-21 01:58N 40°57' E 024°29'0 0.0
2017-Oct-21 01:28N 40°57' E 024°29'0 0.0
2017-Oct-21 00:58N 40°57' E 024°29'0 0.0
2017-Oct-21 00:28N 40°57' E 024°29'0 0.0
2017-Oct-20 23:58N 40°57' E 024°29'0 0.0
2017-Oct-20 23:28N 40°57' E 024°29'0 0.0
2017-Oct-20 22:58N 40°57' E 024°29'0 0.0
2017-Oct-20 22:28N 40°57' E 024°29'0 0.0
2017-Oct-20 21:58N 40°57' E 024°29'0 0.0
2017-Oct-20 21:28N 40°57' E 024°29'0 0.0
2017-Oct-20 20:58N 40°57' E 024°29'0 0.0
2017-Oct-20 20:28N 40°57' E 024°29'0 0.0
2017-Oct-20 19:58N 40°57' E 024°29'0 0.0
2017-Oct-20 19:28N 40°57' E 024°29'0 0.0
2017-Oct-20 18:58N 40°57' E 024°29'0 0.0
2017-Oct-20 18:28N 40°57' E 024°29'0 0.0
2017-Oct-20 17:58N 40°57' E 024°29'0 0.0
2017-Oct-20 17:25N 40°57' E 024°29'0 0.0
2017-Oct-20 16:55N 40°57' E 024°29'0 0.0
2017-Oct-20 16:28N 40°57' E 024°29'0 0.0
2017-Oct-20 15:58N 40°57' E 024°29'0 0.0
2017-Oct-20 15:28N 40°57' E 024°29'0 0.0
2017-Oct-20 14:58N 40°57' E 024°29'0 0.0
2017-Oct-20 13:58N 40°57' E 024°29'0 0.0
2017-Oct-20 13:28N 40°57' E 024°29'0 0.0
2017-Oct-20 12:58N 40°57' E 024°29'0 0.0
2017-Oct-20 12:28N 40°57' E 024°29'0 0.0
2017-Oct-20 11:58N 40°57' E 024°29'0 0.0
2017-Oct-20 11:28N 40°57' E 024°29'0 0.0
2017-Oct-20 10:58N 40°57' E 024°29'0 0.0
2017-Oct-20 10:28N 40°57' E 024°29'0 0.0
2017-Oct-20 09:58N 40°57' E 024°29'0 0.0
2017-Oct-20 09:28N 40°57' E 024°29'0 0.0
2017-Oct-20 08:58N 40°57' E 024°29'0 0.0
2017-Oct-20 08:28N 40°57' E 024°29'0 0.0
2017-Oct-20 07:58N 40°57' E 024°29'0 0.0
2017-Oct-20 07:28N 40°57' E 024°29'0 0.0
2017-Oct-20 06:58N 40°57' E 024°29'0 0.0
2017-Oct-20 06:28N 40°57' E 024°29'0 0.0
2017-Oct-20 05:58N 40°57' E 024°29'0 0.0
2017-Oct-20 05:28N 40°57' E 024°29'0 0.0
2017-Oct-20 04:58N 40°57' E 024°29'0 0.0
2017-Oct-20 04:28N 40°57' E 024°29'0 0.0
2017-Oct-20 03:58N 40°57' E 024°29'0 0.0
2017-Oct-20 03:28N 40°57' E 024°29'0 0.0
2017-Oct-20 02:58N 40°57' E 024°29'0 0.0
2017-Oct-20 02:28N 40°57' E 024°29'0 0.0
2017-Oct-20 01:58N 40°57' E 024°29'0 0.0
2017-Oct-20 01:28N 40°57' E 024°29'0 0.0
2017-Oct-20 00:58N 40°57' E 024°29'0 0.0
2017-Oct-20 00:28N 40°57' E 024°29'0 0.0
2017-Oct-19 23:58N 40°57' E 024°29'0 0.0
2017-Oct-19 23:28N 40°57' E 024°29'0 0.0
2017-Oct-19 22:58N 40°57' E 024°29'0 0.0
2017-Oct-19 22:28N 40°57' E 024°29'0 0.0
2017-Oct-19 21:58N 40°57' E 024°29'0 0.0
2017-Oct-19 21:28N 40°57' E 024°29'0 0.0
2017-Oct-19 20:58N 40°57' E 024°29'0 0.0
2017-Oct-19 20:28N 40°57' E 024°29'0 0.0
2017-Oct-19 19:58N 40°57' E 024°29'0 0.0
2017-Oct-19 19:28N 40°57' E 024°29'0 0.0
2017-Oct-19 18:58N 40°57' E 024°29'0 0.0
2017-Oct-19 18:28N 40°57' E 024°29'0 0.0
2017-Oct-19 17:58N 40°57' E 024°29'0 0.0
2017-Oct-19 17:28N 40°57' E 024°29'0 0.0
2017-Oct-19 16:58N 40°57' E 024°29'0 0.0
2017-Oct-19 16:28N 40°57' E 024°29'0 0.0
2017-Oct-19 15:58N 40°57' E 024°29'0 0.0
2017-Oct-19 15:28N 40°57' E 024°29'0 0.0
2017-Oct-19 14:58N 40°57' E 024°29'0 0.0
2017-Oct-19 14:28N 40°57' E 024°29'0 0.0
2017-Oct-19 13:58N 40°57' E 024°29'0 0.0
2017-Oct-19 13:28N 40°57' E 024°29'0 0.0
2017-Oct-19 12:58N 40°57' E 024°29'0 0.0
2017-Oct-19 12:28N 40°57' E 024°29'0 0.0
2017-Oct-19 11:58N 40°57' E 024°29'0 0.0
2017-Oct-19 11:28N 40°57' E 024°29'0 0.0
2017-Oct-19 10:58N 40°57' E 024°29'0 0.0
2017-Oct-19 10:28N 40°57' E 024°29'0 0.0
2017-Oct-19 09:58N 40°57' E 024°29'0 0.0
2017-Oct-19 09:28N 40°57' E 024°29'0 0.0
2017-Oct-19 08:58N 40°57' E 024°29'0 0.0
2017-Oct-19 08:28N 40°57' E 024°29'0 0.0
2017-Oct-19 07:58N 40°57' E 024°29'0 0.0
2017-Oct-19 07:28N 40°57' E 024°29'0 0.0
2017-Oct-19 06:58N 40°57' E 024°29'0 0.0
2017-Oct-19 06:25N 40°57' E 024°29'0 0.0
2017-Oct-19 05:58N 40°57' E 024°29'0 0.0
2017-Oct-19 05:28N 40°57' E 024°29'0 0.0
2017-Oct-19 04:58N 40°57' E 024°29'0 0.0
2017-Oct-19 04:28N 40°57' E 024°29'0 0.0
2017-Oct-19 03:58N 40°57' E 024°29'0 0.0
2017-Oct-19 03:28N 40°57' E 024°29'0 0.0
2017-Oct-19 02:58N 40°57' E 024°29'0 0.0
2017-Oct-19 02:28N 40°57' E 024°29'0 0.0
2017-Oct-19 01:58N 40°57' E 024°29'0 0.0
2017-Oct-19 01:28N 40°57' E 024°29'0 0.0
2017-Oct-19 00:58N 40°57' E 024°29'0 0.0
2017-Oct-19 00:28N 40°57' E 024°29'0 0.0
2017-Oct-18 23:58N 40°57' E 024°29'0 0.0
2017-Oct-18 23:28N 40°57' E 024°29'0 0.0
2017-Oct-18 22:58N 40°57' E 024°29'0 0.0
2017-Oct-18 22:28N 40°57' E 024°29'0 0.0
2017-Oct-18 21:58N 40°57' E 024°29'0 0.0
2017-Oct-18 21:28N 40°57' E 024°29'0 0.0
2017-Oct-18 20:55N 40°57' E 024°29'0 0.0
2017-Oct-18 20:28N 40°57' E 024°29'0 0.0
2017-Oct-18 19:58N 40°57' E 024°29'0 0.0
2017-Oct-18 19:28N 40°57' E 024°29'0 0.0
2017-Oct-18 18:58N 40°57' E 024°29'0 0.0
2017-Oct-18 18:25N 40°57' E 024°29'0 0.0
2017-Oct-18 17:58N 40°57' E 024°29'0 0.0
2017-Oct-18 17:28N 40°57' E 024°29'0 0.0
2017-Oct-18 16:58N 40°57' E 024°29'0 0.0
2017-Oct-18 16:28N 40°57' E 024°29'0 0.0
2017-Oct-18 15:58N 40°57' E 024°29'0 0.0
2017-Oct-18 15:28N 40°57' E 024°29'0 0.0
2017-Oct-18 14:58N 40°57' E 024°29'0 0.0
2017-Oct-18 13:58N 40°57' E 024°29'0 0.0
2017-Oct-18 13:28N 40°57' E 024°29'0 0.0
2017-Oct-18 12:58N 40°57' E 024°29'0 0.0
2017-Oct-18 12:28N 40°57' E 024°29'0 0.0
2017-Oct-18 11:58N 40°57' E 024°29'0 0.0
2017-Oct-18 11:28N 40°57' E 024°29'0 0.0
2017-Oct-18 10:58N 40°57' E 024°29'0 0.0
2017-Oct-18 10:28N 40°57' E 024°29'0 0.0
2017-Oct-18 09:58N 40°57' E 024°29'0 0.0
2017-Oct-18 09:28N 40°57' E 024°29'0 0.0
2017-Oct-18 08:58N 40°57' E 024°29'0 0.0
2017-Oct-18 08:28N 40°57' E 024°29'0 0.0
2017-Oct-18 07:58N 40°57' E 024°29'0 0.0
2017-Oct-18 07:28N 40°57' E 024°29'0 0.0
2017-Oct-18 06:58N 40°57' E 024°29'0 0.0
2017-Oct-18 06:28N 40°57' E 024°29'1 2.0
2017-Oct-18 05:58N 40°56' E 024°29'0 0.2
2017-Oct-18 05:28N 40°56' E 024°29'0 0.0
2017-Oct-18 04:58N 40°56' E 024°29'0 0.0
2017-Oct-18 04:28N 40°56' E 024°30'0 0.0
2017-Oct-18 03:58N 40°56' E 024°29'0 0.1
2017-Oct-18 03:28N 40°56' E 024°29'0 0.1
2017-Oct-18 02:58N 40°56' E 024°29'0 0.0
2017-Oct-18 02:28N 40°56' E 024°29'0 0.0
2017-Oct-18 01:58N 40°56' E 024°29'0 0.0
2017-Oct-18 01:28N 40°56' E 024°29'0 0.1
2017-Oct-18 00:58N 40°56' E 024°29'0 0.0
2017-Oct-18 00:28N 40°56' E 024°29'0 0.0
2017-Oct-17 23:58N 40°56' E 024°29'0 0.0
2017-Oct-17 23:28N 40°56' E 024°29'0 0.0
2017-Oct-17 22:58N 40°56' E 024°29'0 0.1
2017-Oct-17 22:28N 40°56' E 024°30'0 0.0
2017-Oct-17 21:58N 40°56' E 024°30'0 0.0
2017-Oct-17 21:28N 40°56' E 024°30'0 0.0
2017-Oct-17 20:58N 40°56' E 024°29'0 0.0
2017-Oct-17 20:28N 40°56' E 024°29'0 0.0
2017-Oct-17 19:58N 40°56' E 024°29'0 0.1
2017-Oct-17 19:28N 40°56' E 024°30'0 0.1
2017-Oct-17 18:58N 40°56' E 024°30'0 0.1
2017-Oct-17 18:28N 40°56' E 024°30'0 0.1
2017-Oct-17 17:58N 40°56' E 024°30'0 0.0
2017-Oct-17 17:28N 40°56' E 024°30'0 0.0
2017-Oct-17 16:58N 40°56' E 024°30'0 0.1
2017-Oct-17 16:28N 40°56' E 024°30'0 0.0
2017-Oct-17 15:58N 40°56' E 024°30'0 0.0
2017-Oct-17 15:28N 40°56' E 024°30'0 0.0
2017-Oct-17 14:58N 40°56' E 024°30'0 0.0
2017-Oct-17 14:28N 40°56' E 024°30'0 0.0
2017-Oct-17 13:58N 40°56' E 024°30'0 0.0
2017-Oct-17 13:28N 40°56' E 024°30'0 0.0
2017-Oct-17 12:58N 40°56' E 024°30'0 0.0
2017-Oct-17 12:28N 40°56' E 024°30'0 0.0
2017-Oct-17 11:58N 40°56' E 024°30'0 0.1
2017-Oct-17 11:28N 40°56' E 024°30'0 0.0
2017-Oct-17 10:58N 40°56' E 024°30'0 0.0
2017-Oct-17 10:25N 40°56' E 024°30'0 0.0
2017-Oct-17 09:58N 40°56' E 024°30'0 0.0
2017-Oct-17 09:28N 40°56' E 024°30'0 0.0
2017-Oct-17 08:58N 40°56' E 024°30'0 0.0
2017-Oct-17 08:28N 40°56' E 024°30'0 0.0
2017-Oct-17 07:58N 40°56' E 024°30'0 0.0
2017-Oct-17 07:28N 40°56' E 024°29'0 0.1
2017-Oct-17 06:58N 40°56' E 024°29'0 0.1
2017-Oct-17 06:28N 40°56' E 024°30'0 0.0
2017-Oct-17 05:58N 40°56' E 024°30'0 0.0
2017-Oct-17 05:28N 40°56' E 024°30'0 0.0
2017-Oct-17 04:58N 40°56' E 024°30'  
Track history (hours):
 
Tides and Currents Weather Stations Pressure Air Temp Water Temp Dewpoint Dewpoint Depression Visibility Wind Speed Wind Dir Waves Ship Positions

Mare I

Last reported at 2017-Oct-27 04:48 UTC. Time now 2017-Nov-18 04:49 UTC.
Position N 36°51' E 013°55'.
Warning: this ship's position is 22 days out of date.

Length 111 m; draft 7 m.

Type: Cargo ship. MMSI: 357387000.

Date/timePositionNaut miles runAvg speedWind from/ knotsBaromVisibWave heightAir tempDewpointWater temp
2017-Oct-27 04:48N 36°51' E 013°55'3 8.5
2017-Oct-27 04:29N 36°50' E 013°58'4 8.7
2017-Oct-27 04:00N 36°48' E 014°03'4 8.6
2017-Oct-27 03:30N 36°47' E 014°08'4 8.5
2017-Oct-27 03:00N 36°46' E 014°14'5 9.2
2017-Oct-27 02:30N 36°45' E 014°19'5 9.8
2017-Oct-27 02:00N 36°43' E 014°25'5 9.8
2017-Oct-27 01:30N 36°42' E 014°31'  
2017-Oct-23 22:33N 40°24' E 024°31'1 9.3
2017-Oct-23 22:29N 40°24' E 024°31'5 9.2
2017-Oct-23 22:00N 40°29' E 024°30'5 9.2
2017-Oct-23 21:30N 40°33' E 024°30'5 9.2
2017-Oct-23 21:00N 40°38' E 024°29'5 9.7
2017-Oct-23 20:30N 40°43' E 024°29'5 9.7
2017-Oct-23 20:00N 40°48' E 024°28'5 9.6
2017-Oct-23 19:30N 40°52' E 024°29'3 5.2
2017-Oct-23 18:58N 40°55' E 024°29'0 0.1
2017-Oct-23 18:28N 40°55' E 024°29'0 0.0
2017-Oct-23 17:58N 40°55' E 024°29'0 0.0
2017-Oct-23 17:28N 40°55' E 024°29'0 0.0
2017-Oct-23 16:58N 40°55' E 024°29'0 0.0
2017-Oct-23 16:28N 40°55' E 024°29'0 0.0
2017-Oct-23 15:58N 40°55' E 024°29'0 0.0
2017-Oct-23 15:28N 40°55' E 024°29'0 0.0
2017-Oct-23 14:58N 40°55' E 024°29'0 0.5
2017-Oct-23 14:30N 40°55' E 024°30'0 0.7
2017-Oct-23 13:58N 40°55' E 024°29'0 0.0
2017-Oct-23 13:28N 40°55' E 024°29'0 0.0
2017-Oct-23 12:58N 40°55' E 024°29'0 0.0
2017-Oct-23 12:28N 40°55' E 024°29'0 0.0
2017-Oct-23 11:58N 40°55' E 024°29'0 0.0
2017-Oct-23 11:28N 40°55' E 024°29'0 0.0
2017-Oct-23 10:58N 40°55' E 024°29'0 0.0
2017-Oct-23 10:28N 40°55' E 024°29'0 0.0
2017-Oct-23 09:58N 40°55' E 024°29'0 0.0
2017-Oct-23 09:28N 40°55' E 024°29'0 0.0
2017-Oct-23 08:58N 40°55' E 024°29'0 0.0
2017-Oct-23 08:28N 40°55' E 024°29'0 0.0
2017-Oct-23 07:58N 40°55' E 024°29'0 0.0
2017-Oct-23 07:28N 40°55' E 024°29'0 0.3
2017-Oct-23 07:00N 40°55' E 024°29'2 2.6
2017-Oct-23 06:25N 40°57' E 024°29'0 0.0
2017-Oct-23 05:58N 40°57' E 024°29'0 0.0
2017-Oct-23 05:28N 40°57' E 024°29'0 0.0
2017-Oct-23 04:58N 40°57' E 024°29'0 0.0
2017-Oct-23 04:28N 40°57' E 024°29'0 0.0
2017-Oct-23 03:58N 40°57' E 024°29'0 0.0
2017-Oct-23 03:28N 40°57' E 024°29'0 0.0
2017-Oct-23 02:58N 40°57' E 024°29'0 0.0
2017-Oct-23 02:28N 40°57' E 024°29'0 0.0
2017-Oct-23 01:58N 40°57' E 024°29'0 0.0
2017-Oct-23 01:28N 40°57' E 024°29'0 0.0
2017-Oct-23 00:58N 40°57' E 024°29'0 0.0
2017-Oct-23 00:25N 40°57' E 024°29'0 0.0
2017-Oct-22 23:58N 40°57' E 024°29'0 0.0
2017-Oct-22 23:28N 40°57' E 024°29'0 0.0
2017-Oct-22 22:55N 40°57' E 024°29'0 0.0
2017-Oct-22 22:28N 40°57' E 024°29'0 0.0
2017-Oct-22 21:58N 40°57' E 024°29'0 0.0
2017-Oct-22 21:28N 40°57' E 024°29'0 0.0
2017-Oct-22 20:58N 40°57' E 024°29'0 0.0
2017-Oct-22 20:28N 40°57' E 024°29'0 0.0
2017-Oct-22 19:58N 40°57' E 024°29'0 0.0
2017-Oct-22 19:28N 40°57' E 024°29'0 0.0
2017-Oct-22 18:58N 40°57' E 024°29'0 0.0
2017-Oct-22 18:28N 40°57' E 024°29'0 0.0
2017-Oct-22 17:58N 40°57' E 024°29'0 0.0
2017-Oct-22 17:28N 40°57' E 024°29'0 0.0
2017-Oct-22 16:55N 40°57' E 024°29'0 0.0
2017-Oct-22 16:28N 40°57' E 024°29'0 0.0
2017-Oct-22 15:58N 40°57' E 024°29'0 0.0
2017-Oct-22 15:28N 40°57' E 024°29'0 0.0
2017-Oct-22 14:58N 40°57' E 024°29'0 0.0
2017-Oct-22 14:28N 40°57' E 024°29'0 0.0
2017-Oct-22 13:58N 40°57' E 024°29'0 0.0
2017-Oct-22 13:28N 40°57' E 024°29'0 0.0
2017-Oct-22 12:58N 40°57' E 024°29'0 0.0
2017-Oct-22 12:28N 40°57' E 024°29'0 0.0
2017-Oct-22 11:58N 40°57' E 024°29'0 0.0
2017-Oct-22 11:28N 40°57' E 024°29'0 0.0
2017-Oct-22 10:58N 40°57' E 024°29'0 0.0
2017-Oct-22 10:28N 40°57' E 024°29'0 0.0
2017-Oct-22 09:58N 40°57' E 024°29'0 0.0
2017-Oct-22 09:28N 40°57' E 024°29'0 0.0
2017-Oct-22 08:58N 40°57' E 024°29'0 0.0
2017-Oct-22 08:28N 40°57' E 024°29'0 0.0
2017-Oct-22 07:52N 40°57' E 024°29'0 0.0
2017-Oct-22 07:28N 40°57' E 024°29'0 0.0
2017-Oct-22 06:58N 40°57' E 024°29'0 0.0
2017-Oct-22 06:28N 40°57' E 024°29'0 0.0
2017-Oct-22 05:58N 40°57' E 024°29'0 0.0
2017-Oct-22 05:28N 40°57' E 024°29'0 0.0
2017-Oct-22 04:58N 40°57' E 024°29'0 0.0
2017-Oct-22 04:28N 40°57' E 024°29'0 0.0
2017-Oct-22 03:58N 40°57' E 024°29'0 0.0
2017-Oct-22 03:28N 40°57' E 024°29'0 0.0
2017-Oct-22 02:58N 40°57' E 024°29'0 0.0
2017-Oct-22 02:28N 40°57' E 024°29'0 0.0
2017-Oct-22 01:58N 40°57' E 024°29'0 0.0
2017-Oct-22 01:28N 40°57' E 024°29'0 0.0
2017-Oct-22 00:58N 40°57' E 024°29'0 0.0
2017-Oct-22 00:28N 40°57' E 024°29'0 0.0
2017-Oct-21 23:55N 40°57' E 024°29'0 0.0
2017-Oct-21 23:28N 40°57' E 024°29'0 0.0
2017-Oct-21 22:58N 40°57' E 024°29'0 0.0
2017-Oct-21 22:28N 40°57' E 024°29'0 0.0
2017-Oct-21 21:58N 40°57' E 024°29'0 0.0
2017-Oct-21 21:28N 40°57' E 024°29'0 0.0
2017-Oct-21 20:58N 40°57' E 024°29'0 0.0
2017-Oct-21 20:22N 40°57' E 024°29'0 0.0
2017-Oct-21 19:58N 40°57' E 024°29'0 0.0
2017-Oct-21 19:28N 40°57' E 024°29'0 0.0
2017-Oct-21 18:58N 40°57' E 024°29'0 0.0
2017-Oct-21 18:28N 40°57' E 024°29'0 0.0
2017-Oct-21 17:58N 40°57' E 024°29'0 0.0
2017-Oct-21 17:28N 40°57' E 024°29'0 0.0
2017-Oct-21 16:55N 40°57' E 024°29'0 0.0
2017-Oct-21 16:28N 40°57' E 024°29'0 0.0
2017-Oct-21 15:58N 40°57' E 024°29'0 0.0
2017-Oct-21 15:28N 40°57' E 024°29'0 0.0
2017-Oct-21 14:58N 40°57' E 024°29'0 0.0
2017-Oct-21 14:28N 40°57' E 024°29'0 0.0
2017-Oct-21 13:28N 40°57' E 024°29'0 0.0
2017-Oct-21 12:58N 40°57' E 024°29'0 0.0
2017-Oct-21 12:28N 40°57' E 024°29'0 0.0
2017-Oct-21 11:58N 40°57' E 024°29'0 0.0
2017-Oct-21 11:28N 40°57' E 024°29'0 0.0
2017-Oct-21 10:58N 40°57' E 024°29'0 0.0
2017-Oct-21 10:28N 40°57' E 024°29'0 0.0
2017-Oct-21 09:58N 40°57' E 024°29'0 0.0
2017-Oct-21 09:28N 40°57' E 024°29'0 0.0
2017-Oct-21 08:58N 40°57' E 024°29'0 0.0
2017-Oct-21 08:28N 40°57' E 024°29'0 0.0
2017-Oct-21 07:58N 40°57' E 024°29'0 0.0
2017-Oct-21 07:28N 40°57' E 024°29'0 0.0
2017-Oct-21 06:58N 40°57' E 024°29'0 0.0
2017-Oct-21 06:28N 40°57' E 024°29'0 0.0
2017-Oct-21 05:58N 40°57' E 024°29'0 0.0
2017-Oct-21 05:28N 40°57' E 024°29'0 0.0
2017-Oct-21 04:58N 40°57' E 024°29'0 0.0
2017-Oct-21 04:28N 40°57' E 024°29'0 0.0
2017-Oct-21 03:58N 40°57' E 024°29'0 0.0
2017-Oct-21 03:28N 40°57' E 024°29'0 0.0
2017-Oct-21 02:58N 40°57' E 024°29'0 0.0
2017-Oct-21 02:28N 40°57' E 024°29'0 0.0
2017-Oct-21 01:58N 40°57' E 024°29'0 0.0
2017-Oct-21 01:28N 40°57' E 024°29'0 0.0
2017-Oct-21 00:58N 40°57' E 024°29'0 0.0
2017-Oct-21 00:28N 40°57' E 024°29'0 0.0
2017-Oct-20 23:58N 40°57' E 024°29'0 0.0
2017-Oct-20 23:28N 40°57' E 024°29'0 0.0
2017-Oct-20 22:58N 40°57' E 024°29'0 0.0
2017-Oct-20 22:28N 40°57' E 024°29'0 0.0
2017-Oct-20 21:58N 40°57' E 024°29'0 0.0
2017-Oct-20 21:28N 40°57' E 024°29'0 0.0
2017-Oct-20 20:58N 40°57' E 024°29'0 0.0
2017-Oct-20 20:28N 40°57' E 024°29'0 0.0
2017-Oct-20 19:58N 40°57' E 024°29'0 0.0
2017-Oct-20 19:28N 40°57' E 024°29'0 0.0
2017-Oct-20 18:58N 40°57' E 024°29'0 0.0
2017-Oct-20 18:28N 40°57' E 024°29'0 0.0
2017-Oct-20 17:58N 40°57' E 024°29'0 0.0
2017-Oct-20 17:25N 40°57' E 024°29'0 0.0
2017-Oct-20 16:55N 40°57' E 024°29'0 0.0
2017-Oct-20 16:28N 40°57' E 024°29'0 0.0
2017-Oct-20 15:58N 40°57' E 024°29'0 0.0
2017-Oct-20 15:28N 40°57' E 024°29'0 0.0
2017-Oct-20 14:58N 40°57' E 024°29'0 0.0
2017-Oct-20 13:58N 40°57' E 024°29'0 0.0
2017-Oct-20 13:28N 40°57' E 024°29'0 0.0
2017-Oct-20 12:58N 40°57' E 024°29'0 0.0
2017-Oct-20 12:28N 40°57' E 024°29'0 0.0
2017-Oct-20 11:58N 40°57' E 024°29'0 0.0
2017-Oct-20 11:28N 40°57' E 024°29'0 0.0
2017-Oct-20 10:58N 40°57' E 024°29'0 0.0
2017-Oct-20 10:28N 40°57' E 024°29'0 0.0
2017-Oct-20 09:58N 40°57' E 024°29'0 0.0
2017-Oct-20 09:28N 40°57' E 024°29'0 0.0
2017-Oct-20 08:58N 40°57' E 024°29'0 0.0
2017-Oct-20 08:28N 40°57' E 024°29'0 0.0
2017-Oct-20 07:58N 40°57' E 024°29'0 0.0
2017-Oct-20 07:28N 40°57' E 024°29'0 0.0
2017-Oct-20 06:58N 40°57' E 024°29'0 0.0
2017-Oct-20 06:28N 40°57' E 024°29'0 0.0
2017-Oct-20 05:58N 40°57' E 024°29'0 0.0
2017-Oct-20 05:28N 40°57' E 024°29'0 0.0
2017-Oct-20 04:58N 40°57' E 024°29'0 0.0
2017-Oct-20 04:28N 40°57' E 024°29'0 0.0
2017-Oct-20 03:58N 40°57' E 024°29'0 0.0
2017-Oct-20 03:28N 40°57' E 024°29'0 0.0
2017-Oct-20 02:58N 40°57' E 024°29'0 0.0
2017-Oct-20 02:28N 40°57' E 024°29'0 0.0
2017-Oct-20 01:58N 40°57' E 024°29'0 0.0
2017-Oct-20 01:28N 40°57' E 024°29'0 0.0
2017-Oct-20 00:58N 40°57' E 024°29'0 0.0
2017-Oct-20 00:28N 40°57' E 024°29'0 0.0
2017-Oct-19 23:58N 40°57' E 024°29'0 0.0
2017-Oct-19 23:28N 40°57' E 024°29'0 0.0
2017-Oct-19 22:58N 40°57' E 024°29'0 0.0
2017-Oct-19 22:28N 40°57' E 024°29'0 0.0
2017-Oct-19 21:58N 40°57' E 024°29'0 0.0
2017-Oct-19 21:28N 40°57' E 024°29'0 0.0
2017-Oct-19 20:58N 40°57' E 024°29'0 0.0
2017-Oct-19 20:28N 40°57' E 024°29'0 0.0
2017-Oct-19 19:58N 40°57' E 024°29'0 0.0
2017-Oct-19 19:28N 40°57' E 024°29'0 0.0
2017-Oct-19 18:58N 40°57' E 024°29'0 0.0
2017-Oct-19 18:28N 40°57' E 024°29'0 0.0
2017-Oct-19 17:58N 40°57' E 024°29'0 0.0
2017-Oct-19 17:28N 40°57' E 024°29'0 0.0
2017-Oct-19 16:58N 40°57' E 024°29'0 0.0
2017-Oct-19 16:28N 40°57' E 024°29'0 0.0
2017-Oct-19 15:58N 40°57' E 024°29'0 0.0
2017-Oct-19 15:28N 40°57' E 024°29'0 0.0
2017-Oct-19 14:58N 40°57' E 024°29'0 0.0
2017-Oct-19 14:28N 40°57' E 024°29'0 0.0
2017-Oct-19 13:58N 40°57' E 024°29'0 0.0
2017-Oct-19 13:28N 40°57' E 024°29'0 0.0
2017-Oct-19 12:58N 40°57' E 024°29'0 0.0
2017-Oct-19 12:28N 40°57' E 024°29'0 0.0
2017-Oct-19 11:58N 40°57' E 024°29'0 0.0
2017-Oct-19 11:28N 40°57' E 024°29'0 0.0
2017-Oct-19 10:58N 40°57' E 024°29'0 0.0
2017-Oct-19 10:28N 40°57' E 024°29'0 0.0
2017-Oct-19 09:58N 40°57' E 024°29'0 0.0
2017-Oct-19 09:28N 40°57' E 024°29'0 0.0
2017-Oct-19 08:58N 40°57' E 024°29'0 0.0
2017-Oct-19 08:28N 40°57' E 024°29'0 0.0
2017-Oct-19 07:58N 40°57' E 024°29'0 0.0
2017-Oct-19 07:28N 40°57' E 024°29'0 0.0
2017-Oct-19 06:58N 40°57' E 024°29'0 0.0
2017-Oct-19 06:25N 40°57' E 024°29'0 0.0
2017-Oct-19 05:58N 40°57' E 024°29'0 0.0
2017-Oct-19 05:28N 40°57' E 024°29'0 0.0
2017-Oct-19 04:58N 40°57' E 024°29'0 0.0
2017-Oct-19 04:28N 40°57' E 024°29'0 0.0
2017-Oct-19 03:58N 40°57' E 024°29'0 0.0
2017-Oct-19 03:28N 40°57' E 024°29'0 0.0
2017-Oct-19 02:58N 40°57' E 024°29'0 0.0
2017-Oct-19 02:28N 40°57' E 024°29'0 0.0
2017-Oct-19 01:58N 40°57' E 024°29'0 0.0
2017-Oct-19 01:28N 40°57' E 024°29'0 0.0
2017-Oct-19 00:58N 40°57' E 024°29'0 0.0
2017-Oct-19 00:28N 40°57' E 024°29'0 0.0
2017-Oct-18 23:58N 40°57' E 024°29'0 0.0
2017-Oct-18 23:28N 40°57' E 024°29'0 0.0
2017-Oct-18 22:58N 40°57' E 024°29'0 0.0
2017-Oct-18 22:28N 40°57' E 024°29'0 0.0
2017-Oct-18 21:58N 40°57' E 024°29'0 0.0
2017-Oct-18 21:28N 40°57' E 024°29'0 0.0
2017-Oct-18 20:55N 40°57' E 024°29'0 0.0
2017-Oct-18 20:28N 40°57' E 024°29'0 0.0
2017-Oct-18 19:58N 40°57' E 024°29'0 0.0
2017-Oct-18 19:28N 40°57' E 024°29'0 0.0
2017-Oct-18 18:58N 40°57' E 024°29'0 0.0
2017-Oct-18 18:25N 40°57' E 024°29'0 0.0
2017-Oct-18 17:58N 40°57' E 024°29'0 0.0
2017-Oct-18 17:28N 40°57' E 024°29'0 0.0
2017-Oct-18 16:58N 40°57' E 024°29'0 0.0
2017-Oct-18 16:28N 40°57' E 024°29'0 0.0
2017-Oct-18 15:58N 40°57' E 024°29'0 0.0
2017-Oct-18 15:28N 40°57' E 024°29'0 0.0
2017-Oct-18 14:58N 40°57' E 024°29'0 0.0
2017-Oct-18 13:58N 40°57' E 024°29'0 0.0
2017-Oct-18 13:28N 40°57' E 024°29'0 0.0
2017-Oct-18 12:58N 40°57' E 024°29'0 0.0
2017-Oct-18 12:28N 40°57' E 024°29'0 0.0
2017-Oct-18 11:58N 40°57' E 024°29'0 0.0
2017-Oct-18 11:28N 40°57' E 024°29'0 0.0
2017-Oct-18 10:58N 40°57' E 024°29'0 0.0
2017-Oct-18 10:28N 40°57' E 024°29'0 0.0
2017-Oct-18 09:58N 40°57' E 024°29'0 0.0
2017-Oct-18 09:28N 40°57' E 024°29'0 0.0
2017-Oct-18 08:58N 40°57' E 024°29'0 0.0
2017-Oct-18 08:28N 40°57' E 024°29'0 0.0
2017-Oct-18 07:58N 40°57' E 024°29'0 0.0
2017-Oct-18 07:28N 40°57' E 024°29'0 0.0
2017-Oct-18 06:58N 40°57' E 024°29'0 0.0
2017-Oct-18 06:28N 40°57' E 024°29'1 2.0
2017-Oct-18 05:58N 40°56' E 024°29'0 0.2
2017-Oct-18 05:28N 40°56' E 024°29'0 0.0
2017-Oct-18 04:58N 40°56' E 024°29'0 0.0
2017-Oct-18 04:28N 40°56' E 024°30'0 0.0
2017-Oct-18 03:58N 40°56' E 024°29'0 0.1
2017-Oct-18 03:28N 40°56' E 024°29'0 0.1
2017-Oct-18 02:58N 40°56' E 024°29'0 0.0
2017-Oct-18 02:28N 40°56' E 024°29'0 0.0
2017-Oct-18 01:58N 40°56' E 024°29'0 0.0
2017-Oct-18 01:28N 40°56' E 024°29'0 0.1
2017-Oct-18 00:58N 40°56' E 024°29'0 0.0
2017-Oct-18 00:28N 40°56' E 024°29'0 0.0
2017-Oct-17 23:58N 40°56' E 024°29'0 0.0
2017-Oct-17 23:28N 40°56' E 024°29'0 0.0
2017-Oct-17 22:58N 40°56' E 024°29'0 0.1
2017-Oct-17 22:28N 40°56' E 024°30'0 0.0
2017-Oct-17 21:58N 40°56' E 024°30'0 0.0
2017-Oct-17 21:28N 40°56' E 024°30'0 0.0
2017-Oct-17 20:58N 40°56' E 024°29'0 0.0
2017-Oct-17 20:28N 40°56' E 024°29'0 0.0
2017-Oct-17 19:58N 40°56' E 024°29'0 0.1
2017-Oct-17 19:28N 40°56' E 024°30'0 0.1
2017-Oct-17 18:58N 40°56' E 024°30'0 0.1
2017-Oct-17 18:28N 40°56' E 024°30'0 0.1
2017-Oct-17 17:58N 40°56' E 024°30'0 0.0
2017-Oct-17 17:28N 40°56' E 024°30'0 0.0
2017-Oct-17 16:58N 40°56' E 024°30'0 0.1
2017-Oct-17 16:28N 40°56' E 024°30'0 0.0
2017-Oct-17 15:58N 40°56' E 024°30'0 0.0
2017-Oct-17 15:28N 40°56' E 024°30'0 0.0
2017-Oct-17 14:58N 40°56' E 024°30'0 0.0
2017-Oct-17 14:28N 40°56' E 024°30'0 0.0
2017-Oct-17 13:58N 40°56' E 024°30'0 0.0
2017-Oct-17 13:28N 40°56' E 024°30'0 0.0
2017-Oct-17 12:58N 40°56' E 024°30'0 0.0
2017-Oct-17 12:28N 40°56' E 024°30'0 0.0
2017-Oct-17 11:58N 40°56' E 024°30'0 0.1
2017-Oct-17 11:28N 40°56' E 024°30'0 0.0
2017-Oct-17 10:58N 40°56' E 024°30'0 0.0
2017-Oct-17 10:25N 40°56' E 024°30'0 0.0
2017-Oct-17 09:58N 40°56' E 024°30'0 0.0
2017-Oct-17 09:28N 40°56' E 024°30'0 0.0
2017-Oct-17 08:58N 40°56' E 024°30'0 0.0
2017-Oct-17 08:28N 40°56' E 024°30'0 0.0
2017-Oct-17 07:58N 40°56' E 024°30'0 0.0
2017-Oct-17 07:28N 40°56' E 024°29'0 0.1
2017-Oct-17 06:58N 40°56' E 024°29'0 0.1
2017-Oct-17 06:28N 40°56' E 024°30'0 0.0
2017-Oct-17 05:58N 40°56' E 024°30'0 0.0
2017-Oct-17 05:28N 40°56' E 024°30'0 0.0
2017-Oct-17 04:58N 40°56' E 024°30'  

Dump ship's entire track history